sensor_id;sensor_type;location;lat;lon;timestamp;P1;durP1;ratioP1;P2;durP2;ratioP2
84510;SDS011;74730;43.858;18.424;2024-02-16T00:02:17;26.70;;;13.55;;
84510;SDS011;74730;43.858;18.424;2024-02-16T00:04:43;28.40;;;15.15;;
84510;SDS011;74730;43.858;18.424;2024-02-16T00:07:09;26.58;;;15.00;;
84510;SDS011;74730;43.858;18.424;2024-02-16T00:09:35;22.95;;;13.68;;
84510;SDS011;74730;43.858;18.424;2024-02-16T00:12:01;27.38;;;15.07;;
84510;SDS011;74730;43.858;18.424;2024-02-16T00:14:26;40.58;;;21.02;;
84510;SDS011;74730;43.858;18.424;2024-02-16T00:16:52;34.25;;;19.20;;
84510;SDS011;74730;43.858;18.424;2024-02-16T00:19:17;37.83;;;20.08;;
84510;SDS011;74730;43.858;18.424;2024-02-16T00:21:43;38.58;;;20.30;;
84510;SDS011;74730;43.858;18.424;2024-02-16T00:24:09;30.40;;;17.40;;
84510;SDS011;74730;43.858;18.424;2024-02-16T00:26:35;30.52;;;17.45;;
84510;SDS011;74730;43.858;18.424;2024-02-16T00:29:01;33.70;;;17.48;;
84510;SDS011;74730;43.858;18.424;2024-02-16T00:31:26;37.45;;;19.75;;
84510;SDS011;74730;43.858;18.424;2024-02-16T00:33:52;38.95;;;20.42;;
84510;SDS011;74730;43.858;18.424;2024-02-16T00:36:18;34.53;;;20.55;;
84510;SDS011;74730;43.858;18.424;2024-02-16T00:38:43;40.05;;;20.92;;
84510;SDS011;74730;43.858;18.424;2024-02-16T00:41:16;41.72;;;21.85;;
84510;SDS011;74730;43.858;18.424;2024-02-16T00:43:42;41.38;;;20.80;;
84510;SDS011;74730;43.858;18.424;2024-02-16T00:46:10;35.25;;;20.45;;
84510;SDS011;74730;43.858;18.424;2024-02-16T00:48:35;36.40;;;19.25;;
84510;SDS011;74730;43.858;18.424;2024-02-16T00:51:01;31.48;;;17.70;;
84510;SDS011;74730;43.858;18.424;2024-02-16T00:53:26;35.28;;;19.50;;
84510;SDS011;74730;43.858;18.424;2024-02-16T00:55:52;30.38;;;16.90;;
84510;SDS011;74730;43.858;18.424;2024-02-16T00:58:17;26.38;;;15.75;;
84510;SDS011;74730;43.858;18.424;2024-02-16T01:00:44;26.73;;;12.70;;
84510;SDS011;74730;43.858;18.424;2024-02-16T01:03:10;25.08;;;13.15;;
84510;SDS011;74730;43.858;18.424;2024-02-16T01:05:37;39.20;;;18.23;;
84510;SDS011;74730;43.858;18.424;2024-02-16T01:08:03;35.22;;;18.77;;
84510;SDS011;74730;43.858;18.424;2024-02-16T01:10:29;36.90;;;20.05;;
84510;SDS011;74730;43.858;18.424;2024-02-16T01:12:54;31.50;;;17.42;;
84510;SDS011;74730;43.858;18.424;2024-02-16T01:15:21;31.17;;;16.33;;
84510;SDS011;74730;43.858;18.424;2024-02-16T01:17:46;33.03;;;17.85;;
84510;SDS011;74730;43.858;18.424;2024-02-16T01:20:12;24.88;;;13.38;;
84510;SDS011;74730;43.858;18.424;2024-02-16T01:22:38;27.15;;;15.55;;
84510;SDS011;74730;43.858;18.424;2024-02-16T01:25:04;23.25;;;13.27;;
84510;SDS011;74730;43.858;18.424;2024-02-16T01:27:30;23.73;;;14.45;;
84510;SDS011;74730;43.858;18.424;2024-02-16T01:29:57;35.17;;;16.83;;
84510;SDS011;74730;43.858;18.424;2024-02-16T01:32:22;35.40;;;17.30;;
84510;SDS011;74730;43.858;18.424;2024-02-16T01:34:49;41.30;;;18.40;;
84510;SDS011;74730;43.858;18.424;2024-02-16T01:37:15;16.00;;;9.68;;
84510;SDS011;74730;43.858;18.424;2024-02-16T01:39:40;29.48;;;17.95;;
84510;SDS011;74730;43.858;18.424;2024-02-16T01:42:07;22.23;;;13.13;;
84510;SDS011;74730;43.858;18.424;2024-02-16T01:44:32;27.58;;;14.02;;
84510;SDS011;74730;43.858;18.424;2024-02-16T01:46:58;40.67;;;19.98;;
84510;SDS011;74730;43.858;18.424;2024-02-16T01:49:23;35.38;;;21.35;;
84510;SDS011;74730;43.858;18.424;2024-02-16T01:51:49;37.90;;;20.02;;
84510;SDS011;74730;43.858;18.424;2024-02-16T01:54:15;40.60;;;20.33;;
84510;SDS011;74730;43.858;18.424;2024-02-16T01:56:43;39.25;;;20.80;;
84510;SDS011;74730;43.858;18.424;2024-02-16T01:59:09;39.22;;;19.00;;
84510;SDS011;74730;43.858;18.424;2024-02-16T02:01:35;36.03;;;19.08;;
84510;SDS011;74730;43.858;18.424;2024-02-16T02:04:01;36.28;;;19.75;;
84510;SDS011;74730;43.858;18.424;2024-02-16T02:06:27;39.33;;;21.02;;
84510;SDS011;74730;43.858;18.424;2024-02-16T02:08:53;39.85;;;20.77;;
84510;SDS011;74730;43.858;18.424;2024-02-16T02:11:18;39.75;;;20.98;;
84510;SDS011;74730;43.858;18.424;2024-02-16T02:13:44;39.67;;;20.35;;
84510;SDS011;74730;43.858;18.424;2024-02-16T02:16:10;45.08;;;23.88;;
84510;SDS011;74730;43.858;18.424;2024-02-16T02:18:36;58.13;;;28.73;;
84510;SDS011;74730;43.858;18.424;2024-02-16T02:21:01;48.22;;;25.98;;
84510;SDS011;74730;43.858;18.424;2024-02-16T02:23:27;54.55;;;30.65;;
84510;SDS011;74730;43.858;18.424;2024-02-16T02:25:52;62.10;;;31.08;;
84510;SDS011;74730;43.858;18.424;2024-02-16T02:28:18;62.67;;;33.42;;
84510;SDS011;74730;43.858;18.424;2024-02-16T02:30:44;61.88;;;33.28;;
84510;SDS011;74730;43.858;18.424;2024-02-16T02:33:10;81.53;;;39.90;;
84510;SDS011;74730;43.858;18.424;2024-02-16T02:35:38;74.18;;;38.40;;
84510;SDS011;74730;43.858;18.424;2024-02-16T02:38:04;84.30;;;44.03;;
84510;SDS011;74730;43.858;18.424;2024-02-16T02:40:31;99.55;;;45.53;;
84510;SDS011;74730;43.858;18.424;2024-02-16T02:42:57;81.88;;;43.33;;
84510;SDS011;74730;43.858;18.424;2024-02-16T02:45:23;81.45;;;42.78;;
84510;SDS011;74730;43.858;18.424;2024-02-16T02:47:49;80.85;;;41.35;;
84510;SDS011;74730;43.858;18.424;2024-02-16T02:50:15;78.25;;;41.05;;
84510;SDS011;74730;43.858;18.424;2024-02-16T02:52:40;79.90;;;39.92;;
84510;SDS011;74730;43.858;18.424;2024-02-16T02:55:06;77.03;;;37.05;;
84510;SDS011;74730;43.858;18.424;2024-02-16T02:57:32;71.63;;;37.65;;
84510;SDS011;74730;43.858;18.424;2024-02-16T03:00:06;82.28;;;39.95;;
84510;SDS011;74730;43.858;18.424;2024-02-16T03:02:39;83.32;;;40.67;;
84510;SDS011;74730;43.858;18.424;2024-02-16T03:05:06;88.90;;;44.08;;
84510;SDS011;74730;43.858;18.424;2024-02-16T03:07:35;89.82;;;44.60;;
84510;SDS011;74730;43.858;18.424;2024-02-16T03:10:01;68.35;;;36.30;;
84510;SDS011;74730;43.858;18.424;2024-02-16T03:12:28;77.38;;;36.70;;
84510;SDS011;74730;43.858;18.424;2024-02-16T03:14:53;67.60;;;36.28;;
84510;SDS011;74730;43.858;18.424;2024-02-16T03:17:19;72.70;;;37.25;;
84510;SDS011;74730;43.858;18.424;2024-02-16T03:19:44;72.93;;;38.22;;
84510;SDS011;74730;43.858;18.424;2024-02-16T03:22:10;70.18;;;35.42;;
84510;SDS011;74730;43.858;18.424;2024-02-16T03:24:35;69.80;;;39.38;;
84510;SDS011;74730;43.858;18.424;2024-02-16T03:27:01;74.45;;;36.58;;
84510;SDS011;74730;43.858;18.424;2024-02-16T03:29:27;76.32;;;38.83;;
84510;SDS011;74730;43.858;18.424;2024-02-16T03:31:53;77.20;;;39.50;;
84510;SDS011;74730;43.858;18.424;2024-02-16T03:34:18;78.65;;;38.55;;
84510;SDS011;74730;43.858;18.424;2024-02-16T03:36:44;78.53;;;38.13;;
84510;SDS011;74730;43.858;18.424;2024-02-16T03:39:09;71.15;;;37.03;;
84510;SDS011;74730;43.858;18.424;2024-02-16T03:41:35;72.38;;;35.03;;
84510;SDS011;74730;43.858;18.424;2024-02-16T03:44:00;65.28;;;33.30;;
84510;SDS011;74730;43.858;18.424;2024-02-16T03:46:26;60.75;;;33.08;;
84510;SDS011;74730;43.858;18.424;2024-02-16T03:48:52;70.47;;;33.22;;
84510;SDS011;74730;43.858;18.424;2024-02-16T03:51:18;68.88;;;34.55;;
84510;SDS011;74730;43.858;18.424;2024-02-16T03:53:43;65.30;;;35.67;;
84510;SDS011;74730;43.858;18.424;2024-02-16T03:56:12;64.22;;;33.50;;
84510;SDS011;74730;43.858;18.424;2024-02-16T03:58:43;69.10;;;32.67;;
84510;SDS011;74730;43.858;18.424;2024-02-16T04:01:09;59.92;;;31.75;;
84510;SDS011;74730;43.858;18.424;2024-02-16T04:03:34;49.63;;;27.33;;
84510;SDS011;74730;43.858;18.424;2024-02-16T04:06:00;52.03;;;26.65;;
84510;SDS011;74730;43.858;18.424;2024-02-16T04:08:26;49.20;;;25.73;;
84510;SDS011;74730;43.858;18.424;2024-02-16T04:10:52;49.00;;;26.50;;
84510;SDS011;74730;43.858;18.424;2024-02-16T04:13:17;57.63;;;27.33;;
84510;SDS011;74730;43.858;18.424;2024-02-16T04:15:43;54.78;;;28.13;;
84510;SDS011;74730;43.858;18.424;2024-02-16T04:18:08;57.95;;;29.77;;
84510;SDS011;74730;43.858;18.424;2024-02-16T04:20:34;61.13;;;31.58;;
84510;SDS011;74730;43.858;18.424;2024-02-16T04:23:00;62.05;;;30.40;;
84510;SDS011;74730;43.858;18.424;2024-02-16T04:25:26;57.50;;;30.60;;
84510;SDS011;74730;43.858;18.424;2024-02-16T04:27:51;56.42;;;30.00;;
84510;SDS011;74730;43.858;18.424;2024-02-16T04:30:17;57.92;;;28.52;;
84510;SDS011;74730;43.858;18.424;2024-02-16T04:32:43;59.00;;;29.85;;
84510;SDS011;74730;43.858;18.424;2024-02-16T04:35:08;63.28;;;30.85;;
84510;SDS011;74730;43.858;18.424;2024-02-16T04:37:37;66.75;;;31.75;;
84510;SDS011;74730;43.858;18.424;2024-02-16T04:40:05;58.17;;;31.42;;
84510;SDS011;74730;43.858;18.424;2024-02-16T04:42:31;64.43;;;33.90;;
84510;SDS011;74730;43.858;18.424;2024-02-16T04:44:57;70.65;;;34.42;;
84510;SDS011;74730;43.858;18.424;2024-02-16T04:47:22;61.65;;;31.80;;
84510;SDS011;74730;43.858;18.424;2024-02-16T04:49:50;64.03;;;32.40;;
84510;SDS011;74730;43.858;18.424;2024-02-16T04:52:15;61.38;;;30.85;;
84510;SDS011;74730;43.858;18.424;2024-02-16T04:54:41;59.78;;;30.95;;
84510;SDS011;74730;43.858;18.424;2024-02-16T04:57:06;54.72;;;29.85;;
84510;SDS011;74730;43.858;18.424;2024-02-16T04:59:32;59.53;;;30.23;;
84510;SDS011;74730;43.858;18.424;2024-02-16T05:01:58;56.78;;;28.95;;
84510;SDS011;74730;43.858;18.424;2024-02-16T05:04:23;54.03;;;29.95;;
84510;SDS011;74730;43.858;18.424;2024-02-16T05:06:49;53.25;;;30.75;;
84510;SDS011;74730;43.858;18.424;2024-02-16T05:09:16;49.30;;;28.73;;
84510;SDS011;74730;43.858;18.424;2024-02-16T05:11:45;54.35;;;29.60;;
84510;SDS011;74730;43.858;18.424;2024-02-16T05:14:11;59.25;;;28.75;;
84510;SDS011;74730;43.858;18.424;2024-02-16T05:16:46;53.22;;;28.23;;
84510;SDS011;74730;43.858;18.424;2024-02-16T05:19:12;53.42;;;28.33;;
84510;SDS011;74730;43.858;18.424;2024-02-16T05:21:38;57.38;;;28.90;;
84510;SDS011;74730;43.858;18.424;2024-02-16T05:24:04;56.42;;;30.33;;
84510;SDS011;74730;43.858;18.424;2024-02-16T05:26:29;53.33;;;28.25;;
84510;SDS011;74730;43.858;18.424;2024-02-16T05:28:55;55.05;;;29.30;;
84510;SDS011;74730;43.858;18.424;2024-02-16T05:31:20;55.95;;;30.65;;
84510;SDS011;74730;43.858;18.424;2024-02-16T05:33:49;54.95;;;30.95;;
84510;SDS011;74730;43.858;18.424;2024-02-16T05:36:16;67.68;;;31.52;;
84510;SDS011;74730;43.858;18.424;2024-02-16T05:38:48;62.63;;;32.38;;
84510;SDS011;74730;43.858;18.424;2024-02-16T05:41:15;58.22;;;32.03;;
84510;SDS011;74730;43.858;18.424;2024-02-16T05:43:43;61.80;;;34.67;;
84510;SDS011;74730;43.858;18.424;2024-02-16T05:46:12;60.17;;;32.78;;
84510;SDS011;74730;43.858;18.424;2024-02-16T05:48:38;65.68;;;32.63;;
84510;SDS011;74730;43.858;18.424;2024-02-16T05:51:05;60.95;;;35.17;;
84510;SDS011;74730;43.858;18.424;2024-02-16T05:53:31;62.72;;;33.65;;
84510;SDS011;74730;43.858;18.424;2024-02-16T05:55:59;60.38;;;31.75;;
84510;SDS011;74730;43.858;18.424;2024-02-16T05:58:25;60.60;;;33.10;;
84510;SDS011;74730;43.858;18.424;2024-02-16T06:00:51;59.53;;;32.47;;
84510;SDS011;74730;43.858;18.424;2024-02-16T06:03:19;57.45;;;33.00;;
84510;SDS011;74730;43.858;18.424;2024-02-16T06:05:45;63.92;;;33.20;;
84510;SDS011;74730;43.858;18.424;2024-02-16T06:08:11;66.10;;;32.47;;
84510;SDS011;74730;43.858;18.424;2024-02-16T06:10:38;61.83;;;31.92;;
84510;SDS011;74730;43.858;18.424;2024-02-16T06:13:04;57.80;;;31.60;;
84510;SDS011;74730;43.858;18.424;2024-02-16T06:15:31;65.88;;;32.92;;
84510;SDS011;74730;43.858;18.424;2024-02-16T06:17:59;58.63;;;31.25;;
84510;SDS011;74730;43.858;18.424;2024-02-16T06:20:25;66.50;;;33.55;;
84510;SDS011;74730;43.858;18.424;2024-02-16T06:22:51;61.20;;;32.47;;
84510;SDS011;74730;43.858;18.424;2024-02-16T06:25:16;62.72;;;35.17;;
84510;SDS011;74730;43.858;18.424;2024-02-16T06:27:42;62.30;;;33.78;;
84510;SDS011;74730;43.858;18.424;2024-02-16T06:30:07;64.70;;;34.00;;
84510;SDS011;74730;43.858;18.424;2024-02-16T06:32:38;57.63;;;30.30;;
84510;SDS011;74730;43.858;18.424;2024-02-16T06:35:04;63.85;;;30.30;;
84510;SDS011;74730;43.858;18.424;2024-02-16T06:37:30;55.40;;;29.20;;
84510;SDS011;74730;43.858;18.424;2024-02-16T06:39:57;60.63;;;32.83;;
84510;SDS011;74730;43.858;18.424;2024-02-16T06:42:22;53.47;;;28.77;;
84510;SDS011;74730;43.858;18.424;2024-02-16T06:44:48;56.85;;;30.05;;
84510;SDS011;74730;43.858;18.424;2024-02-16T06:47:13;63.85;;;32.28;;
84510;SDS011;74730;43.858;18.424;2024-02-16T06:49:39;55.47;;;29.88;;
84510;SDS011;74730;43.858;18.424;2024-02-16T06:52:05;54.65;;;30.48;;
84510;SDS011;74730;43.858;18.424;2024-02-16T06:54:30;60.97;;;32.90;;
84510;SDS011;74730;43.858;18.424;2024-02-16T06:56:57;62.28;;;32.38;;
84510;SDS011;74730;43.858;18.424;2024-02-16T06:59:22;51.25;;;29.90;;
84510;SDS011;74730;43.858;18.424;2024-02-16T07:01:48;53.00;;;31.25;;
84510;SDS011;74730;43.858;18.424;2024-02-16T07:04:14;70.55;;;33.95;;
84510;SDS011;74730;43.858;18.424;2024-02-16T07:06:39;66.07;;;34.08;;
84510;SDS011;74730;43.858;18.424;2024-02-16T07:09:05;55.50;;;30.70;;
84510;SDS011;74730;43.858;18.424;2024-02-16T07:11:31;60.97;;;33.30;;
84510;SDS011;74730;43.858;18.424;2024-02-16T07:14:00;56.60;;;33.28;;
84510;SDS011;74730;43.858;18.424;2024-02-16T07:16:27;54.30;;;33.00;;
84510;SDS011;74730;43.858;18.424;2024-02-16T07:18:53;60.25;;;35.50;;
84510;SDS011;74730;43.858;18.424;2024-02-16T07:21:19;60.78;;;33.67;;
84510;SDS011;74730;43.858;18.424;2024-02-16T07:23:47;59.78;;;34.25;;
84510;SDS011;74730;43.858;18.424;2024-02-16T07:26:13;55.47;;;33.03;;
84510;SDS011;74730;43.858;18.424;2024-02-16T07:28:39;54.72;;;32.38;;
84510;SDS011;74730;43.858;18.424;2024-02-16T07:31:08;49.95;;;30.30;;
84510;SDS011;74730;43.858;18.424;2024-02-16T07:33:34;55.03;;;31.95;;
84510;SDS011;74730;43.858;18.424;2024-02-16T07:36:00;52.45;;;30.23;;
84510;SDS011;74730;43.858;18.424;2024-02-16T07:38:25;48.80;;;31.25;;
84510;SDS011;74730;43.858;18.424;2024-02-16T07:40:52;58.50;;;33.33;;
84510;SDS011;74730;43.858;18.424;2024-02-16T07:43:18;53.80;;;30.30;;
84510;SDS011;74730;43.858;18.424;2024-02-16T07:45:44;54.00;;;31.80;;
84510;SDS011;74730;43.858;18.424;2024-02-16T07:48:09;51.92;;;29.83;;
84510;SDS011;74730;43.858;18.424;2024-02-16T07:50:35;53.95;;;30.67;;
84510;SDS011;74730;43.858;18.424;2024-02-16T07:53:01;51.85;;;31.52;;
84510;SDS011;74730;43.858;18.424;2024-02-16T07:55:26;53.00;;;31.40;;
84510;SDS011;74730;43.858;18.424;2024-02-16T07:57:52;55.08;;;32.40;;
84510;SDS011;74730;43.858;18.424;2024-02-16T08:00:17;49.83;;;29.98;;
84510;SDS011;74730;43.858;18.424;2024-02-16T08:02:44;56.58;;;33.53;;
84510;SDS011;74730;43.858;18.424;2024-02-16T08:07:39;56.83;;;31.98;;
84510;SDS011;74730;43.858;18.424;2024-02-16T08:10:08;45.85;;;29.80;;
84510;SDS011;74730;43.858;18.424;2024-02-16T08:12:34;47.45;;;29.98;;
84510;SDS011;74730;43.858;18.424;2024-02-16T08:15:04;47.13;;;31.85;;
84510;SDS011;74730;43.858;18.424;2024-02-16T08:17:32;43.30;;;29.33;;
84510;SDS011;74730;43.858;18.424;2024-02-16T08:19:59;46.90;;;29.52;;
84510;SDS011;74730;43.858;18.424;2024-02-16T08:22:25;42.33;;;28.05;;
84510;SDS011;74730;43.858;18.424;2024-02-16T08:24:50;41.83;;;28.27;;
84510;SDS011;74730;43.858;18.424;2024-02-16T08:27:17;45.67;;;28.95;;
84510;SDS011;74730;43.858;18.424;2024-02-16T08:29:43;41.42;;;27.90;;
84510;SDS011;74730;43.858;18.424;2024-02-16T08:32:09;45.20;;;29.25;;
84510;SDS011;74730;43.858;18.424;2024-02-16T08:34:35;37.65;;;25.42;;
84510;SDS011;74730;43.858;18.424;2024-02-16T08:37:02;31.27;;;23.45;;
84510;SDS011;74730;43.858;18.424;2024-02-16T08:39:47;30.85;;;22.05;;
84510;SDS011;74730;43.858;18.424;2024-02-16T08:42:13;30.20;;;21.15;;
84510;SDS011;74730;43.858;18.424;2024-02-16T08:44:39;30.85;;;22.92;;
84510;SDS011;74730;43.858;18.424;2024-02-16T08:47:06;33.13;;;25.48;;
84510;SDS011;74730;43.858;18.424;2024-02-16T08:49:35;41.47;;;28.67;;
84510;SDS011;74730;43.858;18.424;2024-02-16T08:52:00;42.00;;;30.38;;
84510;SDS011;74730;43.858;18.424;2024-02-16T08:54:26;42.63;;;29.73;;
84510;SDS011;74730;43.858;18.424;2024-02-16T08:56:55;44.47;;;30.33;;
84510;SDS011;74730;43.858;18.424;2024-02-16T08:59:21;43.45;;;31.90;;
84510;SDS011;74730;43.858;18.424;2024-02-16T09:01:47;41.75;;;30.08;;
84510;SDS011;74730;43.858;18.424;2024-02-16T09:04:12;47.50;;;31.63;;
84510;SDS011;74730;43.858;18.424;2024-02-16T09:06:38;43.92;;;31.05;;
84510;SDS011;74730;43.858;18.424;2024-02-16T09:09:04;49.55;;;31.08;;
84510;SDS011;74730;43.858;18.424;2024-02-16T09:11:32;43.22;;;29.40;;
84510;SDS011;74730;43.858;18.424;2024-02-16T09:13:59;43.55;;;28.05;;
84510;SDS011;74730;43.858;18.424;2024-02-16T09:16:25;43.22;;;29.10;;
84510;SDS011;74730;43.858;18.424;2024-02-16T09:18:57;45.00;;;31.10;;
84510;SDS011;74730;43.858;18.424;2024-02-16T09:21:26;45.08;;;28.58;;
84510;SDS011;74730;43.858;18.424;2024-02-16T09:23:54;45.35;;;28.95;;
84510;SDS011;74730;43.858;18.424;2024-02-16T09:26:24;38.35;;;27.02;;
84510;SDS011;74730;43.858;18.424;2024-02-16T09:28:55;33.72;;;22.65;;
84510;SDS011;74730;43.858;18.424;2024-02-16T09:31:22;40.72;;;25.85;;
84510;SDS011;74730;43.858;18.424;2024-02-16T09:33:48;48.03;;;30.23;;
84510;SDS011;74730;43.858;18.424;2024-02-16T09:36:14;51.33;;;31.95;;
84510;SDS011;74730;43.858;18.424;2024-02-16T09:38:39;49.17;;;30.92;;
84510;SDS011;74730;43.858;18.424;2024-02-16T09:41:05;47.60;;;32.10;;
84510;SDS011;74730;43.858;18.424;2024-02-16T09:43:30;54.25;;;35.35;;
84510;SDS011;74730;43.858;18.424;2024-02-16T09:45:57;50.28;;;33.05;;
84510;SDS011;74730;43.858;18.424;2024-02-16T09:48:24;54.97;;;33.38;;
84510;SDS011;74730;43.858;18.424;2024-02-16T09:50:58;58.35;;;36.40;;
84510;SDS011;74730;43.858;18.424;2024-02-16T09:53:27;51.83;;;34.60;;
84510;SDS011;74730;43.858;18.424;2024-02-16T09:55:54;56.67;;;34.53;;
84510;SDS011;74730;43.858;18.424;2024-02-16T09:58:20;59.25;;;37.08;;
84510;SDS011;74730;43.858;18.424;2024-02-16T10:03:28;66.47;;;36.85;;
84510;SDS011;74730;43.858;18.424;2024-02-16T10:06:06;62.47;;;34.97;;
84510;SDS011;74730;43.858;18.424;2024-02-16T10:08:34;57.17;;;33.92;;
84510;SDS011;74730;43.858;18.424;2024-02-16T10:11:12;59.58;;;35.88;;
84510;SDS011;74730;43.858;18.424;2024-02-16T10:13:39;62.17;;;36.95;;
84510;SDS011;74730;43.858;18.424;2024-02-16T10:16:06;61.38;;;34.65;;
84510;SDS011;74730;43.858;18.424;2024-02-16T10:18:34;66.15;;;36.75;;
84510;SDS011;74730;43.858;18.424;2024-02-16T10:21:09;57.47;;;34.53;;
84510;SDS011;74730;43.858;18.424;2024-02-16T10:23:35;58.38;;;34.75;;
84510;SDS011;74730;43.858;18.424;2024-02-16T10:26:00;61.45;;;36.22;;
84510;SDS011;74730;43.858;18.424;2024-02-16T10:28:27;62.67;;;36.72;;
84510;SDS011;74730;43.858;18.424;2024-02-16T10:30:57;59.30;;;36.70;;
84510;SDS011;74730;43.858;18.424;2024-02-16T10:33:28;60.95;;;36.33;;
84510;SDS011;74730;43.858;18.424;2024-02-16T10:35:57;63.08;;;36.90;;
84510;SDS011;74730;43.858;18.424;2024-02-16T10:38:24;55.00;;;34.58;;
84510;SDS011;74730;43.858;18.424;2024-02-16T10:40:52;62.05;;;35.00;;
84510;SDS011;74730;43.858;18.424;2024-02-16T10:43:19;57.47;;;35.72;;
84510;SDS011;74730;43.858;18.424;2024-02-16T10:45:46;58.78;;;37.53;;
84510;SDS011;74730;43.858;18.424;2024-02-16T10:48:14;63.63;;;39.15;;
84510;SDS011;74730;43.858;18.424;2024-02-16T10:50:40;67.07;;;37.53;;
84510;SDS011;74730;43.858;18.424;2024-02-16T10:53:25;58.80;;;34.25;;
84510;SDS011;74730;43.858;18.424;2024-02-16T10:55:57;61.88;;;36.05;;
84510;SDS011;74730;43.858;18.424;2024-02-16T10:58:24;55.20;;;33.75;;
84510;SDS011;74730;43.858;18.424;2024-02-16T11:00:53;52.80;;;34.55;;
84510;SDS011;74730;43.858;18.424;2024-02-16T11:03:24;50.15;;;32.08;;
84510;SDS011;74730;43.858;18.424;2024-02-16T11:05:54;47.17;;;29.45;;
84510;SDS011;74730;43.858;18.424;2024-02-16T11:08:24;43.90;;;26.55;;
84510;SDS011;74730;43.858;18.424;2024-02-16T11:13:32;41.85;;;24.27;;
84510;SDS011;74730;43.858;18.424;2024-02-16T11:16:03;35.25;;;23.70;;
84510;SDS011;74730;43.858;18.424;2024-02-16T11:18:32;39.72;;;24.25;;
84510;SDS011;74730;43.858;18.424;2024-02-16T11:21:11;35.72;;;23.98;;
84510;SDS011;74730;43.858;18.424;2024-02-16T11:26:10;34.80;;;21.20;;
84510;SDS011;74730;43.858;18.424;2024-02-16T11:28:36;35.22;;;20.90;;
84510;SDS011;74730;43.858;18.424;2024-02-16T11:31:03;39.25;;;21.13;;
84510;SDS011;74730;43.858;18.424;2024-02-16T11:33:29;37.45;;;20.95;;
84510;SDS011;74730;43.858;18.424;2024-02-16T11:35:56;38.28;;;20.90;;
84510;SDS011;74730;43.858;18.424;2024-02-16T11:38:23;29.73;;;17.80;;
84510;SDS011;74730;43.858;18.424;2024-02-16T11:40:56;33.75;;;19.75;;
84510;SDS011;74730;43.858;18.424;2024-02-16T11:43:24;28.55;;;17.20;;
84510;SDS011;74730;43.858;18.424;2024-02-16T11:45:51;34.15;;;18.13;;
84510;SDS011;74730;43.858;18.424;2024-02-16T11:48:21;30.30;;;18.70;;
84510;SDS011;74730;43.858;18.424;2024-02-16T11:51:02;30.38;;;16.38;;
84510;SDS011;74730;43.858;18.424;2024-02-16T11:53:32;29.58;;;17.83;;
84510;SDS011;74730;43.858;18.424;2024-02-16T11:55:58;32.20;;;17.00;;
84510;SDS011;74730;43.858;18.424;2024-02-16T11:58:25;30.35;;;17.88;;
84510;SDS011;74730;43.858;18.424;2024-02-16T12:00:52;28.67;;;18.23;;
84510;SDS011;74730;43.858;18.424;2024-02-16T12:03:18;34.30;;;20.02;;
84510;SDS011;74730;43.858;18.424;2024-02-16T12:05:51;37.40;;;21.73;;
84510;SDS011;74730;43.858;18.424;2024-02-16T12:08:17;34.40;;;20.38;;
84510;SDS011;74730;43.858;18.424;2024-02-16T12:10:44;36.50;;;20.40;;
84510;SDS011;74730;43.858;18.424;2024-02-16T12:13:13;37.63;;;23.38;;
84510;SDS011;74730;43.858;18.424;2024-02-16T12:15:41;33.45;;;21.40;;
84510;SDS011;74730;43.858;18.424;2024-02-16T12:18:08;32.10;;;19.77;;
84510;SDS011;74730;43.858;18.424;2024-02-16T12:20:34;30.67;;;17.52;;
84510;SDS011;74730;43.858;18.424;2024-02-16T12:22:59;26.63;;;13.40;;
84510;SDS011;74730;43.858;18.424;2024-02-16T12:25:35;30.02;;;16.27;;
84510;SDS011;74730;43.858;18.424;2024-02-16T12:28:01;24.75;;;15.63;;
84510;SDS011;74730;43.858;18.424;2024-02-16T12:30:26;32.38;;;17.17;;
84510;SDS011;74730;43.858;18.424;2024-02-16T12:32:52;31.25;;;19.00;;
84510;SDS011;74730;43.858;18.424;2024-02-16T12:35:18;39.92;;;18.20;;
84510;SDS011;74730;43.858;18.424;2024-02-16T12:37:45;24.70;;;15.15;;
84510;SDS011;74730;43.858;18.424;2024-02-16T12:40:10;26.80;;;16.30;;
84510;SDS011;74730;43.858;18.424;2024-02-16T12:42:36;35.72;;;18.13;;
84510;SDS011;74730;43.858;18.424;2024-02-16T12:45:03;30.17;;;17.50;;
84510;SDS011;74730;43.858;18.424;2024-02-16T12:47:29;28.38;;;16.88;;
84510;SDS011;74730;43.858;18.424;2024-02-16T12:49:55;24.52;;;14.65;;
84510;SDS011;74730;43.858;18.424;2024-02-16T12:52:21;26.88;;;12.77;;
84510;SDS011;74730;43.858;18.424;2024-02-16T12:54:47;22.95;;;12.48;;
84510;SDS011;74730;43.858;18.424;2024-02-16T12:57:13;22.15;;;13.13;;
84510;SDS011;74730;43.858;18.424;2024-02-16T12:59:39;17.95;;;12.52;;
84510;SDS011;74730;43.858;18.424;2024-02-16T13:02:04;22.40;;;13.48;;
84510;SDS011;74730;43.858;18.424;2024-02-16T13:04:30;26.15;;;15.10;;
84510;SDS011;74730;43.858;18.424;2024-02-16T13:06:57;23.27;;;15.45;;
84510;SDS011;74730;43.858;18.424;2024-02-16T13:09:23;26.45;;;14.65;;
84510;SDS011;74730;43.858;18.424;2024-02-16T13:11:48;19.38;;;12.65;;
84510;SDS011;74730;43.858;18.424;2024-02-16T13:14:19;20.05;;;12.55;;
84510;SDS011;74730;43.858;18.424;2024-02-16T13:16:45;21.55;;;13.35;;
84510;SDS011;74730;43.858;18.424;2024-02-16T13:19:12;21.10;;;12.40;;
84510;SDS011;74730;43.858;18.424;2024-02-16T13:21:38;23.95;;;13.48;;
84510;SDS011;74730;43.858;18.424;2024-02-16T13:24:04;19.35;;;12.52;;
84510;SDS011;74730;43.858;18.424;2024-02-16T13:26:30;21.13;;;13.00;;
84510;SDS011;74730;43.858;18.424;2024-02-16T13:28:56;26.45;;;14.13;;
84510;SDS011;74730;43.858;18.424;2024-02-16T13:31:22;22.42;;;13.57;;
84510;SDS011;74730;43.858;18.424;2024-02-16T13:33:49;19.83;;;11.73;;
84510;SDS011;74730;43.858;18.424;2024-02-16T13:36:15;21.33;;;12.93;;
84510;SDS011;74730;43.858;18.424;2024-02-16T13:38:40;22.65;;;12.25;;
84510;SDS011;74730;43.858;18.424;2024-02-16T13:41:06;15.23;;;10.27;;
84510;SDS011;74730;43.858;18.424;2024-02-16T13:43:31;20.80;;;11.45;;
84510;SDS011;74730;43.858;18.424;2024-02-16T13:45:57;19.73;;;11.20;;
84510;SDS011;74730;43.858;18.424;2024-02-16T13:48:23;20.83;;;12.27;;
84510;SDS011;74730;43.858;18.424;2024-02-16T13:50:49;21.02;;;12.25;;
84510;SDS011;74730;43.858;18.424;2024-02-16T13:53:16;23.17;;;12.50;;
84510;SDS011;74730;43.858;18.424;2024-02-16T13:55:45;20.40;;;11.70;;
84510;SDS011;74730;43.858;18.424;2024-02-16T13:58:11;19.95;;;12.85;;
84510;SDS011;74730;43.858;18.424;2024-02-16T14:00:37;22.52;;;12.10;;
84510;SDS011;74730;43.858;18.424;2024-02-16T14:03:12;19.98;;;11.98;;
84510;SDS011;74730;43.858;18.424;2024-02-16T14:05:39;29.75;;;13.73;;
84510;SDS011;74730;43.858;18.424;2024-02-16T14:08:05;19.02;;;12.13;;
84510;SDS011;74730;43.858;18.424;2024-02-16T14:10:32;24.90;;;13.32;;
84510;SDS011;74730;43.858;18.424;2024-02-16T14:12:58;20.15;;;12.20;;
84510;SDS011;74730;43.858;18.424;2024-02-16T14:15:24;23.92;;;12.60;;
84510;SDS011;74730;43.858;18.424;2024-02-16T14:17:49;22.42;;;13.23;;